Mora RC

Jan. 22, 2020, 3:35 p.m.

  • imperial
Air Temperature RH Dewpoint Wind Chill Heat Index Wind Speed Wind Direction Precipitation Solar Radiation Soil Temperature
Date Time Max Mean Mean Total Total
US/Mountain F % F F F MPH MPH MPH deg. deg. in. MJ/m^2 F
2020-01-21 15:35 39.18 70.77 30.49 39.18 39.18 2.24 2.24 1.45 34.7 165.3 0.0 0.031 37.26
2020-01-21 15:40 39.06 71.31 30.56 39.06 39.06 0.0 2.24 1.28 14.3 128.5 0.0 0.027 37.35
2020-01-21 15:45 39.13 71.52 30.7 39.13 39.13 0.0 1.34 0.29 14.3 144.5 0.0 0.026 37.42
2020-01-21 15:50 39.13 71.38 30.65 39.13 39.13 1.34 1.7 1.01 22.2 120.1 0.0 0.033 37.49
2020-01-21 15:55 39.06 71.45 30.6 39.06 39.06 2.06 2.24 1.63 23.3 128.1 0.0 0.036 37.56
2020-01-21 16:00 38.93 71.66 30.56 38.93 38.93 0.0 2.77 1.36 12.9 99.8 0.0 0.027 37.58
2020-01-21 16:05 38.88 71.52 30.46 38.88 38.88 2.24 2.24 1.05 18.5 102.2 0.0 0.023 37.62
2020-01-21 16:10 38.7 72.1 30.48 38.7 38.7 1.16 2.95 1.83 12.3 143.3 0.0 0.019 37.67
2020-01-21 16:15 38.52 72.48 30.44 38.52 38.52 2.59 2.59 1.54 13.4 132.0 0.0 0.014 37.69
2020-01-21 16:20 38.26 73.4 30.5 38.26 38.26 1.7 2.59 1.77 18.7 115.6 0.0 0.014 37.72
2020-01-21 16:25 38.21 74.15 30.7 38.21 38.21 0.81 2.24 1.48 12.9 128.7 0.0 0.013 37.76
2020-01-21 16:30 37.96 74.8 30.68 37.96 37.96 0.98 1.34 0.76 18.9 108.5 0.0 0.013 37.76
2020-01-21 16:35 37.78 75.39 30.69 37.78 37.78 0.0 1.7 1.12 27.1 36.4 0.0 0.011 37.76
2020-01-21 16:40 37.6 75.49 30.55 37.6 37.6 0.0 0.98 0.31 9.1 54.9 0.0 0.01 37.76
2020-01-21 16:45 37.53 75.73 30.56 37.53 37.53 0.0 2.24 0.74 12.4 59.6 0.0 0.007 37.76
2020-01-21 16:50 37.42 76.11 30.58 37.42 37.42 0.81 0.81 0.02 0.0 62.0 0.0 0.006 37.74
2020-01-21 16:55 36.99 76.96 30.44 36.99 36.99 2.06 2.77 1.95 18.4 93.3 0.0 0.005 37.72
2020-01-21 17:00 36.73 77.61 30.4 36.73 36.73 0.0 1.88 0.51 12.9 60.5 0.0 0.004 37.69
2020-01-21 17:05 36.61 78.02 30.41 36.61 36.61 0.0 0.81 0.09 2.7 99.6 0.0 0.003 37.67
2020-01-21 17:10 36.12 78.67 30.14 36.12 36.12 2.06 3.67 1.66 14.7 92.2 0.0 0.002 37.63
2020-01-21 17:15 35.74 80.1 30.21 35.74 35.74 1.34 2.95 1.41 48.0 60.4 0.0 0.001 37.62
2020-01-21 17:20 35.44 80.9 30.16 35.44 35.44 2.06 2.95 1.72 45.0 76.0 0.0 0.001 37.58
2020-01-21 17:25 35.13 81.6 30.07 35.13 35.13 1.52 1.88 0.94 37.5 64.2 0.0 0.0 37.54
2020-01-21 17:30 34.9 83.6 30.44 34.9 34.9 2.77 3.31 2.04 19.0 42.2 0.0 0.0 37.49
2020-01-21 17:35 34.47 83.9 30.1 34.47 34.47 0.0 2.95 1.48 14.8 80.3 0.0 0.0 37.44
2020-01-21 17:40 34.23 85.0 30.19 34.23 34.23 1.88 2.42 0.83 18.9 68.9 0.0 0.0 37.4
2020-01-21 17:45 33.98 85.3 30.03 33.98 33.98 1.34 2.06 1.19 14.3 109.8 0.0 0.0 37.33
2020-01-21 17:50 33.67 85.7 29.85 33.67 33.67 0.0 1.34 0.74 9.1 98.6 0.0 0.0 37.29
2020-01-21 17:55 33.44 86.4 29.82 33.44 33.44 0.0 1.88 0.92 10.1 312.8 0.0 0.0 37.22
2020-01-21 18:00 32.63 86.3 28.99 32.63 32.63 0.0 1.88 1.01 12.0 211.9 0.0 0.0 37.17
2020-01-21 18:05 32.4 87.3 29.04 32.4 32.4 0.0 0.0 0.0 0.0 0.0 0.0 0.0 37.09
2020-01-21 18:10 31.66 86.8 28.18 31.66 31.66 0.81 1.34 0.4 10.2 226.1 0.0 0.0 37.02
2020-01-21 18:15 31.23 87.9 28.06 31.23 31.23 0.0 0.81 0.04 0.3 266.0 0.0 0.0 36.95
2020-01-21 18:20 30.74 87.9 27.58 30.74 30.74 2.06 2.06 0.31 0.8 218.7 0.0 0.0 36.88
2020-01-21 18:25 30.61 90.0 28.03 30.61 30.61 0.98 2.24 1.57 18.4 254.4 0.0 0.0 36.79
2020-01-21 18:30 30.61 90.3 28.11 30.61 30.61 0.0 0.0 0.0 0.0 0.0 0.0 0.0 36.7
2020-01-21 18:35 30.36 89.9 27.75 30.36 30.36 0.98 1.52 0.89 29.6 242.6 0.0 0.0 36.63
2020-01-21 18:40 30.79 90.9 28.45 30.79 30.79 0.98 3.13 2.21 31.8 351.2 0.0 0.0 36.54
2020-01-21 18:45 30.81 91.4 28.6 30.81 30.81 1.88 2.42 1.72 50.3 359.2 0.0 0.0 36.46
2020-01-21 18:50 30.31 89.5 27.59 30.31 30.31 2.24 3.31 1.61 34.1 248.6 0.0 0.0 36.39
2020-01-21 18:55 30.07 90.0 27.5 30.07 30.07 2.06 3.67 2.26 37.0 244.3 0.0 0.0 36.28
2020-01-21 19:00 29.57 90.8 27.21 29.57 29.57 1.52 2.24 1.81 41.3 275.7 0.0 0.0 36.21
2020-01-21 19:05 29.52 90.7 27.13 29.52 29.52 0.0 1.16 0.18 17.9 282.3 0.0 0.0 36.14
2020-01-21 19:10 29.39 90.6 26.98 29.39 29.39 2.24 2.24 1.1 70.9 344.0 0.0 0.0 36.07
2020-01-21 19:15 29.26 91.2 27.02 29.26 29.26 1.34 3.49 1.59 66.3 244.0 0.0 0.0 36.01
2020-01-21 19:20 29.03 91.5 26.87 29.03 29.03 0.81 2.06 0.63 55.3 354.5 0.0 0.0 35.94
2020-01-21 19:25 29.16 91.4 26.96 29.16 29.16 1.16 1.52 0.45 48.6 359.0 0.0 0.0 35.87
2020-01-21 19:30 28.9 91.3 26.69 28.9 28.9 0.0 1.7 0.81 26.2 73.0 0.0 0.0 35.8
2020-01-21 19:35 28.78 91.6 26.64 28.78 28.78 0.98 1.34 0.49 10.7 300.2 0.0 0.0 35.73
2020-01-21 19:40 28.54 91.7 26.44 28.54 28.54 0.0 0.98 0.11 9.5 270.0 0.0 0.0 35.65
2020-01-21 19:45 28.54 92.4 26.62 28.54 28.54 1.34 4.03 2.08 53.8 285.1 0.0 0.0 35.62
2020-01-21 19:50 28.42 92.7 26.58 24.79 28.42 3.31 3.31 1.83 91.5 124.9 0.0 0.0 35.56
2020-01-21 19:55 27.93 92.7 26.09 23.99 27.93 3.49 4.03 2.55 29.5 251.7 0.0 0.0 35.51
2020-01-21 20:00 28.29 93.4 26.63 23.73 28.29 4.03 5.28 3.11 37.1 289.2 0.0 0.0 35.46
2020-01-21 20:05 28.06 93.4 26.4 28.06 28.06 2.77 5.28 2.64 34.6 198.8 0.0 0.0 35.38
2020-01-21 20:10 28.11 93.5 26.48 28.11 28.11 2.59 5.64 3.31 33.9 254.8 0.0 0.0 35.35
2020-01-21 20:15 28.42 93.7 26.83 28.42 28.42 2.06 5.28 2.33 71.5 314.0 0.0 0.0 35.31
2020-01-21 20:20 27.73 92.9 25.95 27.73 27.73 0.98 5.1 3.11 41.8 91.1 0.0 0.0 35.24
2020-01-21 20:25 27.55 93.3 25.87 27.55 27.55 2.77 6.17 2.68 54.5 79.0 0.0 0.0 35.22
2020-01-21 20:30 27.68 93.7 26.1 23.95 27.68 3.31 6.17 3.69 23.8 60.4 0.0 0.0 35.19
2020-01-21 20:35 27.68 93.8 26.13 27.68 27.68 0.81 4.74 3.0 53.8 105.0 0.0 0.0 35.15
2020-01-21 20:40 27.63 93.9 26.1 27.63 27.63 2.42 6.35 3.47 38.5 156.5 0.0 0.0 35.1
2020-01-21 20:45 27.19 93.8 25.65 27.19 27.19 1.88 6.0 3.96 62.5 113.9 0.0 0.0 35.04
2020-01-21 20:50 27.07 93.9 25.55 22.76 27.07 3.67 3.85 2.17 61.0 157.7 0.0 0.0 35.02
2020-01-21 20:55 27.19 94.0 25.7 22.25 27.19 4.21 5.1 3.44 52.7 91.2 0.0 0.0 34.97
2020-01-21 21:00 27.19 94.1 25.72 23.65 27.19 3.13 5.64 2.71 64.3 173.7 0.0 0.0 34.93
2020-01-21 21:05 27.0 94.1 25.53 27.0 27.0 0.0 4.74 2.64 89.8 31.2 0.0 0.0 34.9
2020-01-21 21:10 26.94 94.0 25.45 21.96 26.94 4.21 7.25 2.95 37.0 231.3 0.0 0.0 34.86
2020-01-21 21:15 29.03 94.8 27.73 23.81 29.03 4.74 8.12 4.85 83.1 75.0 0.0 0.0 34.83
2020-01-21 21:20 30.27 94.8 28.96 25.82 30.27 4.21 5.64 3.22 35.9 27.4 0.0 0.0 34.81
2020-01-21 21:25 33.53 84.2 29.27 33.53 33.53 1.7 7.96 4.14 87.3 31.4 0.0 0.0 34.77
2020-01-21 21:30 33.03 81.4 27.95 27.16 33.03 6.35 6.35 3.13 55.4 191.0 0.0 0.0 34.75
2020-01-21 21:35 31.62 84.6 27.52 25.21 31.62 6.71 10.09 7.02 29.6 115.2 0.0 0.0 34.72
2020-01-21 21:40 33.33 78.17 27.27 28.52 33.33 5.1 6.0 4.56 73.3 239.2 0.0 0.0 34.7
2020-01-21 21:45 32.97 79.58 27.35 32.97 32.97 0.0 5.64 2.82 49.8 354.5 0.0 0.0 34.68
2020-01-21 21:50 32.29 81.0 27.11 28.16 32.29 4.21 5.1 2.35 65.4 357.8 0.0 0.0 34.66
2020-01-21 21:55 32.59 79.16 26.85 32.59 32.59 1.34 4.56 1.74 69.5 267.3 0.0 0.0 34.63
2020-01-21 22:00 31.86 79.95 26.38 31.86 31.86 2.24 4.21 2.48 71.4 350.0 0.0 0.0 34.61
2020-01-21 22:05 31.98 79.58 26.39 27.44 31.98 4.56 5.64 2.75 46.8 26.9 0.0 0.0 34.57
2020-01-21 22:10 34.45 71.44 26.17 34.45 34.45 2.24 6.89 4.27 87.8 33.0 0.0 0.0 34.56
2020-01-21 22:15 34.14 73.42 26.53 31.31 34.14 3.31 5.64 3.78 19.0 64.7 0.0 0.0 34.52
2020-01-21 22:20 33.22 77.11 26.83 33.22 33.22 2.95 7.78 4.27 54.0 122.5 0.0 0.0 34.5
2020-01-21 22:25 34.88 68.98 25.73 30.05 34.88 5.46 6.17 3.8 63.9 172.8 0.0 0.0 34.48
2020-01-21 22:30 35.55 68.36 26.16 31.44 35.55 4.74 10.8 4.16 84.2 141.9 0.0 0.0 34.47
2020-01-21 22:35 35.98 67.47 26.25 35.98 35.98 2.42 5.82 2.75 57.2 229.7 0.0 0.0 34.45
2020-01-21 22:40 34.56 70.88 26.08 34.56 34.56 2.06 3.31 2.01 58.8 289.9 0.0 0.0 34.41
2020-01-21 22:45 34.56 71.02 26.13 34.56 34.56 1.34 5.28 3.78 46.5 232.5 0.0 0.0 34.39
2020-01-21 22:50 34.93 69.28 25.89 34.93 34.93 1.34 2.95 1.19 48.7 225.8 0.0 0.0 34.38
2020-01-21 22:55 34.5 70.64 25.95 34.5 34.5 0.81 3.67 1.86 28.1 32.7 0.0 0.0 34.36
2020-01-21 23:00 34.3 69.65 25.42 34.3 34.3 2.06 4.03 2.51 91.3 129.0 0.0 0.0 34.34
2020-01-21 23:05 35.24 68.11 25.77 35.24 35.24 0.0 4.74 2.44 84.1 307.4 0.0 0.0 34.34
2020-01-21 23:10 35.98 65.65 25.59 33.19 35.98 3.49 4.74 2.24 71.6 147.0 0.0 0.0 34.3
2020-01-21 23:15 35.78 65.96 25.52 35.78 35.78 0.0 3.67 2.28 69.7 149.1 0.0 0.0 34.29
2020-01-21 23:20 34.81 68.87 25.63 34.81 34.81 2.06 2.95 1.07 40.0 237.1 0.0 0.0 34.27
2020-01-21 23:25 34.38 70.23 25.68 34.38 34.38 2.42 7.78 4.36 53.6 156.1 0.0 0.0 34.27
2020-01-21 23:30 36.1 62.1 24.38 31.78 36.1 5.1 7.25 4.3 55.4 16.7 0.0 0.0 34.25
2020-01-21 23:35 37.02 61.65 25.07 33.48 37.02 4.38 6.71 4.32 80.6 155.2 0.0 0.0 34.23
2020-01-21 23:40 38.19 56.97 24.28 38.19 38.19 2.95 7.25 4.65 60.5 342.0 0.0 0.0 34.21
2020-01-21 23:45 37.15 59.36 24.28 33.16 37.15 4.92 8.12 4.97 80.8 160.8 0.0 0.0 34.21
2020-01-21 23:50 37.63 55.64 23.19 31.7 37.63 7.96 8.3 3.94 61.5 104.2 0.0 0.0 34.2
2020-01-21 23:55 37.27 60.56 24.88 34.12 37.27 4.03 8.48 4.5 61.6 201.9 0.0 0.0 34.2
2020-01-22 00:00 35.42 63.88 24.4 35.42 35.42 2.24 9.4 4.76 88.7 198.0 0.0 0.0 34.18
2020-01-22 00:05 35.98 63.88 24.93 31.63 35.98 5.1 7.96 5.08 34.0 127.4 0.0 0.0 34.16
2020-01-22 00:10 34.81 66.85 24.91 30.91 34.81 4.38 5.1 3.49 40.5 172.1 0.0 0.0 34.14
2020-01-22 00:15 33.64 69.82 24.83 33.64 33.64 1.34 4.56 2.71 44.5 87.6 0.0 0.0 34.12
2020-01-22 00:20 34.12 67.26 24.4 34.12 34.12 2.24 3.67 2.42 79.6 353.1 0.0 0.0 34.12
2020-01-22 00:25 35.29 63.84 24.27 29.63 35.29 6.71 6.71 3.22 19.1 99.3 0.0 0.0 34.11
2020-01-22 00:30 34.68 65.04 24.13 31.12 34.68 4.03 9.04 5.39 41.6 164.7 0.0 0.0 34.09
2020-01-22 00:35 35.42 63.84 24.39 32.16 35.42 3.85 6.89 4.38 17.0 169.8 0.0 0.0 34.07
2020-01-22 00:40 34.93 65.82 24.66 34.93 34.93 1.88 6.17 3.49 82.2 70.8 0.0 0.0 34.07
2020-01-22 00:45 34.38 67.57 24.76 29.91 34.38 4.92 6.53 3.76 91.0 343.0 0.0 0.0 34.05
2020-01-22 00:50 34.63 66.71 24.69 30.05 34.63 5.1 6.35 3.85 37.7 40.9 0.0 0.0 34.03
2020-01-22 00:55 34.99 66.37 24.91 34.99 34.99 1.7 4.74 2.98 44.9 24.5 0.0 0.0 34.02
2020-01-22 01:00 35.78 65.21 25.24 30.33 35.78 6.53 7.78 4.79 54.2 61.8 0.0 0.0 34.02
2020-01-22 01:05 36.95 59.12 24.0 32.1 36.95 6.0 10.45 6.24 73.3 90.2 0.0 0.0 34.02
2020-01-22 01:10 35.42 65.14 24.87 32.55 35.42 3.49 8.48 4.21 79.6 161.6 0.0 0.0 34.0
2020-01-22 01:15 34.0 70.44 25.39 28.72 34.0 5.82 8.48 6.13 21.8 121.8 0.0 0.0 33.98
2020-01-22 01:20 34.81 65.93 24.58 29.55 34.81 6.0 8.68 4.92 51.4 130.9 0.0 0.0 33.98
2020-01-22 01:25 35.78 65.58 25.38 30.97 35.78 5.64 10.98 6.02 60.2 144.0 0.0 0.0 33.96
2020-01-22 01:30 34.2 70.09 25.46 31.6 34.2 3.13 7.25 3.65 62.8 29.9 0.0 0.0 33.94
2020-01-22 01:35 33.26 71.05 24.89 33.26 33.26 2.24 6.0 2.95 37.9 92.4 0.0 0.0 33.94
2020-01-22 01:40 31.91 74.37 24.68 31.91 31.91 2.06 3.85 2.08 64.2 112.7 0.0 0.0 33.93
2020-01-22 01:45 32.16 74.3 24.91 32.16 32.16 0.98 5.28 3.65 37.1 347.8 0.0 0.0 33.91
2020-01-22 01:50 35.29 64.39 24.47 35.29 35.29 2.24 6.89 3.47 72.5 8.6 0.0 0.0 33.91
2020-01-22 01:55 34.81 66.44 24.76 34.81 34.81 0.0 5.46 2.75 43.4 334.3 0.0 0.0 33.91
2020-01-22 02:00 33.51 68.42 24.23 28.89 33.51 4.92 4.92 1.61 59.6 90.9 0.0 0.0 33.89
2020-01-22 02:05 33.15 69.89 24.39 33.15 33.15 2.59 4.74 2.84 41.5 274.7 0.0 0.0 33.89
2020-01-22 02:10 33.46 67.98 24.02 33.46 33.46 2.24 3.67 2.55 24.5 334.9 0.0 0.0 33.85
2020-01-22 02:15 32.47 69.31 23.54 32.47 32.47 1.88 4.74 2.82 59.0 191.5 0.0 0.0 33.85
2020-01-22 02:20 31.05 72.25 23.16 31.05 31.05 1.16 3.31 2.3 59.7 345.2 0.0 0.0 33.85
2020-01-22 02:25 31.24 72.42 23.41 31.24 31.24 2.42 4.21 2.84 51.0 130.2 0.0 0.0 33.84
2020-01-22 02:30 31.78 72.83 24.06 31.78 31.78 1.88 4.56 2.84 63.2 4.3 0.0 0.0 33.82
2020-01-22 02:35 31.24 73.89 23.89 31.24 31.24 0.0 2.24 1.36 37.0 38.7 0.0 0.0 33.82
2020-01-22 02:40 30.69 76.56 24.19 30.69 30.69 2.06 2.06 0.96 53.9 149.9 0.0 0.0 33.82
2020-01-22 02:45 29.7 79.22 24.05 29.7 29.7 1.7 3.31 1.68 17.8 70.1 0.0 0.0 33.78
2020-01-22 02:50 29.08 81.2 24.04 29.08 29.08 0.0 4.38 2.44 26.2 103.9 0.0 0.0 33.78
2020-01-22 02:55 29.16 80.1 23.79 25.39 29.16 3.49 3.67 2.39 23.9 213.3 0.0 0.0 33.78
2020-01-22 03:00 29.84 78.79 24.06 24.58 29.84 4.92 6.53 4.9 16.5 194.0 0.0 0.0 33.78
2020-01-22 03:05 30.81 76.64 24.34 30.81 30.81 1.34 5.28 3.87 21.9 209.6 0.0 0.0 33.78
2020-01-22 03:10 30.58 76.94 24.21 30.58 30.58 2.06 6.17 3.44 33.5 319.0 0.0 0.0 33.75
2020-01-22 03:15 30.2 78.55 24.34 26.58 30.2 3.49 5.1 2.77 63.4 291.5 0.0 0.0 33.75
2020-01-22 03:20 30.33 77.22 24.05 30.33 30.33 1.88 3.85 1.9 21.8 331.3 0.0 0.0 33.75
2020-01-22 03:25 29.34 78.28 23.41 29.34 29.34 2.59 5.46 3.13 44.6 232.7 0.0 0.0 33.71
2020-01-22 03:30 29.03 78.38 23.15 25.73 29.03 3.13 3.85 2.28 34.4 248.2 0.0 0.0 33.71
2020-01-22 03:35 29.41 78.41 23.52 29.41 29.41 2.59 3.67 2.62 47.5 308.1 0.0 0.0 33.73
2020-01-22 03:40 28.72 77.63 22.62 28.72 28.72 2.95 4.38 2.37 85.2 46.0 0.0 0.0 33.73
2020-01-22 03:45 29.41 77.39 23.21 29.41 29.41 0.0 5.1 2.62 46.0 22.7 0.0 0.0 33.69
2020-01-22 03:50 30.45 72.02 22.51 30.45 30.45 1.16 6.53 3.06 35.1 284.7 0.0 0.0 33.71
2020-01-22 03:55 29.28 74.93 22.32 29.28 29.28 2.59 5.46 2.73 53.7 260.8 0.0 0.0 33.69
2020-01-22 04:00 29.34 76.47 22.86 25.37 29.34 3.67 3.85 1.54 20.6 307.1 0.0 0.0 33.67
2020-01-22 04:05 29.16 76.23 22.61 29.16 29.16 1.7 3.49 1.52 58.4 255.2 0.0 0.0 33.67
2020-01-22 04:10 28.18 79.31 22.6 28.18 28.18 1.88 4.38 2.17 50.2 78.1 0.0 0.0 33.66
2020-01-22 04:15 27.68 80.1 22.35 27.68 27.68 1.34 2.77 1.83 36.5 316.4 0.0 0.0 33.66
2020-01-22 04:20 27.32 80.5 22.11 27.32 27.32 0.0 1.52 0.2 2.6 319.6 0.0 0.0 33.66
2020-01-22 04:25 26.71 82.2 22.01 22.12 26.71 3.85 4.38 2.59 72.7 261.8 0.0 0.0 33.64
2020-01-22 04:30 27.45 80.1 22.12 22.97 27.45 3.85 6.17 2.66 34.9 239.8 0.0 0.0 33.64
2020-01-22 04:35 28.44 77.47 22.29 24.11 28.44 3.85 4.74 2.86 44.4 175.0 0.0 0.0 33.62
2020-01-22 04:40 28.44 75.08 21.55 28.44 28.44 2.77 5.82 4.59 30.6 134.6 0.0 0.0 33.62
2020-01-22 04:45 28.92 75.32 22.09 28.92 28.92 2.42 6.17 3.27 30.5 88.2 0.0 0.0 33.6
2020-01-22 04:50 29.35 73.51 21.94 29.35 29.35 1.16 2.95 1.59 35.1 32.2 0.0 0.0 33.6
2020-01-22 04:55 29.17 73.99 21.92 29.17 29.17 2.24 3.31 1.63 59.9 267.7 0.0 0.0 33.58
2020-01-22 05:00 29.43 71.11 21.22 26.18 29.43 3.13 3.67 2.3 49.6 194.8 0.0 0.0 33.58
2020-01-22 05:05 30.9 64.48 20.33 26.75 30.9 4.03 4.03 2.89 64.7 190.1 0.0 0.0 33.57
2020-01-22 05:10 30.29 67.63 20.87 30.29 30.29 2.24 4.03 2.75 44.9 103.5 0.0 0.0 33.57
2020-01-22 05:15 32.25 59.9 19.88 27.75 32.25 4.56 9.4 4.0 84.0 203.0 0.0 0.0 33.57
2020-01-22 05:20 33.12 57.82 19.86 29.92 33.12 3.49 9.4 5.19 34.9 69.1 0.0 0.0 33.55
2020-01-22 05:25 31.64 60.62 19.58 31.64 31.64 2.77 4.92 2.91 89.9 256.8 0.0 0.0 33.55
2020-01-22 05:30 31.46 60.96 19.54 31.46 31.46 1.88 5.82 2.39 44.3 149.3 0.0 0.0 33.53
2020-01-22 05:35 32.13 58.05 19.02 32.13 32.13 1.7 6.17 3.42 61.7 302.9 0.0 0.0 33.53
2020-01-22 05:40 34.52 52.51 18.92 29.48 34.52 5.64 10.63 6.15 30.2 338.2 0.0 0.0 33.51
2020-01-22 05:45 35.08 49.57 18.09 29.37 35.08 6.71 9.73 5.26 38.8 334.9 0.0 0.0 33.51
2020-01-22 05:50 35.82 47.73 17.89 30.37 35.82 6.53 10.98 7.07 27.4 328.7 0.0 0.0 33.51
2020-01-22 05:55 35.82 48.0 18.03 28.14 35.82 10.63 11.34 6.49 25.2 334.4 0.0 0.0 33.51
2020-01-22 06:00 35.56 48.44 18.01 31.0 35.56 5.28 14.74 7.74 24.9 351.6 0.0 0.0 33.49
2020-01-22 06:05 35.56 47.45 17.53 29.95 35.56 6.71 9.57 5.61 25.9 339.2 0.0 0.0 33.48
2020-01-22 06:10 35.8 46.76 17.4 31.57 35.8 4.92 16.53 8.21 36.7 351.6 0.0 0.0 33.48
2020-01-22 06:15 35.56 48.47 18.02 33.15 35.56 3.13 12.06 5.44 28.0 333.1 0.0 0.0 33.48
2020-01-22 06:20 35.31 47.96 17.54 30.56 35.31 5.46 14.74 6.11 28.9 333.7 0.0 0.0 33.48
2020-01-22 06:25 35.55 48.91 18.21 30.98 35.55 5.28 10.98 5.79 31.1 344.5 0.0 0.0 33.46
2020-01-22 06:30 35.55 48.12 17.84 32.3 35.55 3.85 11.88 5.19 58.4 338.9 0.0 0.0 33.46
2020-01-22 06:35 35.55 48.67 18.1 35.55 35.55 2.77 9.04 5.17 56.6 358.5 0.0 0.0 33.44
2020-01-22 06:40 35.49 48.05 17.75 28.6 35.49 8.86 12.06 6.53 38.0 351.5 0.0 0.0 33.44
2020-01-22 06:45 35.67 47.2 17.5 31.91 35.67 4.38 14.38 6.4 32.5 356.3 0.0 0.0 33.44
2020-01-22 06:50 35.42 48.6 17.95 35.42 35.42 2.06 7.61 3.6 38.6 352.9 0.0 0.0 33.44
2020-01-22 06:55 34.93 50.85 18.55 34.93 34.93 1.34 5.28 3.2 67.6 340.6 0.0 0.0 33.42
2020-01-22 07:00 34.56 52.05 18.75 30.61 34.56 4.38 5.64 3.04 82.1 317.3 0.0 0.0 33.42
2020-01-22 07:05 34.2 52.97 18.82 34.2 34.2 2.59 6.17 3.67 31.5 357.8 0.0 0.0 33.4
2020-01-22 07:10 34.2 53.25 18.95 30.56 34.2 4.03 6.89 3.53 39.7 2.8 0.0 0.0 33.4
2020-01-22 07:15 34.07 53.35 18.87 34.07 34.07 1.52 8.86 3.29 71.7 353.6 0.0 0.0 33.4
2020-01-22 07:20 34.43 52.91 19.01 29.37 34.43 5.64 8.3 4.43 40.7 314.3 0.0 0.001 33.39
2020-01-22 07:25 34.38 50.58 17.91 31.8 34.38 3.13 11.16 6.46 52.0 335.6 0.0 0.002 33.39
2020-01-22 07:30 35.29 49.35 18.19 32.41 35.29 3.49 12.06 5.48 75.0 295.6 0.0 0.003 33.37
2020-01-22 07:35 34.81 51.61 18.78 28.16 34.81 8.12 9.22 5.57 63.2 0.6 0.0 0.011 33.37
2020-01-22 07:40 35.47 50.51 18.9 32.22 35.47 3.85 4.92 3.36 78.9 312.2 0.0 0.02 33.37
2020-01-22 07:45 35.55 50.0 18.73 31.76 35.55 4.38 6.0 4.18 47.7 339.3 0.0 0.026 33.35
2020-01-22 07:50 34.63 53.69 19.54 34.63 34.63 2.06 5.82 3.36 38.8 305.2 0.0 0.025 33.35
2020-01-22 07:55 33.89 55.09 19.45 33.89 33.89 0.81 4.21 2.46 76.9 332.3 0.0 0.011 33.35
2020-01-22 08:00 33.94 54.75 19.36 33.94 33.94 1.34 5.28 3.27 32.1 237.7 0.0 0.009 33.35
2020-01-22 08:05 34.3 52.32 18.63 34.3 34.3 1.7 3.85 1.81 33.2 15.1 0.0 0.013 33.35
2020-01-22 08:10 34.5 53.28 19.24 34.5 34.5 1.16 5.1 2.42 63.9 13.5 0.0 0.017 33.35
2020-01-22 08:15 34.68 52.63 19.12 30.94 34.68 4.21 6.0 2.86 58.4 32.3 0.0 0.022 33.35
2020-01-22 08:20 34.86 55.09 20.36 32.13 34.86 3.31 7.25 3.36 47.7 46.5 0.0 0.026 33.31
2020-01-22 08:25 34.92 53.93 19.91 31.77 34.92 3.67 8.68 4.38 46.7 23.8 0.0 0.03 33.31
2020-01-22 08:30 35.11 55.09 20.6 32.42 35.11 3.31 11.16 4.45 49.4 39.0 0.0 0.034 33.31
2020-01-22 08:35 35.47 54.68 20.76 32.03 35.47 4.03 9.91 4.07 47.0 35.4 0.0 0.049 33.31
2020-01-22 08:40 35.78 52.9 20.27 29.87 35.78 7.25 12.77 5.66 29.8 39.1 0.0 0.053 33.31
2020-01-22 08:45 35.83 52.69 20.22 31.18 35.83 5.46 8.86 5.64 31.6 34.8 0.0 0.049 33.31
2020-01-22 08:50 35.91 52.35 20.14 32.72 35.91 3.85 9.91 5.32 33.1 35.1 0.0 0.047 33.31
2020-01-22 08:55 35.91 53.27 20.55 35.91 35.91 2.77 9.4 5.15 37.7 350.8 0.0 0.051 33.3
2020-01-22 09:00 36.09 52.52 20.38 33.53 36.09 3.31 9.73 5.53 32.1 352.8 0.0 0.06 33.3
2020-01-22 09:05 36.14 51.39 19.92 30.19 36.14 7.43 8.48 4.85 25.5 338.9 0.0 0.057 33.3
2020-01-22 09:10 36.14 50.91 19.7 30.3 36.14 7.25 10.8 6.33 32.6 353.9 0.0 0.056 33.3
2020-01-22 09:15 36.14 50.88 19.69 31.4 36.14 5.64 11.34 5.61 24.8 334.2 0.0 0.057 33.3
2020-01-22 09:20 36.34 50.74 19.81 32.52 36.34 4.56 6.71 5.17 25.7 334.9 0.0 0.059 33.3
2020-01-22 09:25 36.34 52.45 20.58 32.52 36.34 4.56 10.45 5.7 25.1 338.5 0.0 0.055 33.28
2020-01-22 09:30 36.14 51.08 19.78 29.21 36.14 9.22 15.28 8.28 23.3 341.0 0.0 0.052 33.28
2020-01-22 09:35 36.01 51.94 20.05 30.26 36.01 7.07 10.63 7.49 21.5 336.7 0.0 0.049 33.28
2020-01-22 09:40 35.96 51.26 19.69 28.08 35.96 11.16 11.88 8.68 24.1 338.1 0.0 0.04 33.28
2020-01-22 09:45 35.91 51.19 19.61 30.73 35.91 6.17 9.91 6.58 28.5 356.9 0.0 0.038 33.28
2020-01-22 09:50 35.83 51.9 19.87 31.47 35.83 5.1 9.91 7.36 23.2 349.5 0.0 0.04 33.28
2020-01-22 09:55 35.78 52.9 20.27 30.71 35.78 6.0 9.22 6.06 26.3 342.8 0.0 0.04 33.26
2020-01-22 10:00 35.71 51.7 19.66 30.12 35.71 6.71 13.85 7.54 14.2 331.2 0.0 0.04 33.26
2020-01-22 10:05 35.53 51.8 19.54 28.27 35.53 9.57 15.82 8.5 24.7 322.0 0.0 0.038 33.26
2020-01-22 10:10 35.28 52.66 19.69 28.93 35.28 7.78 13.85 8.52 26.3 312.5 0.0 0.039 33.24
2020-01-22 10:15 35.35 52.69 19.77 28.42 35.35 8.86 15.82 10.11 18.5 326.3 0.0 0.037 33.24
2020-01-22 10:20 35.28 52.62 19.67 27.96 35.28 9.57 15.1 10.27 21.4 327.5 0.0 0.035 33.26
2020-01-22 10:25 35.28 53.17 19.92 28.93 35.28 7.78 13.85 9.95 18.9 326.4 0.0 0.032 33.26
2020-01-22 10:30 35.35 53.48 20.12 27.89 35.35 9.91 14.74 10.94 17.0 323.1 0.0 0.029 33.26
2020-01-22 10:35 35.22 53.92 20.19 26.93 35.22 11.7 12.59 8.41 21.2 322.2 0.0 0.028 33.26
2020-01-22 10:40 35.4 53.44 20.15 27.79 35.4 10.27 13.67 10.56 22.9 318.2 0.0 0.024 33.26
2020-01-22 10:45 35.53 54.74 20.84 30.54 35.53 5.82 13.85 8.72 20.7 316.2 0.0 0.029 33.26
2020-01-22 10:50 35.71 53.34 20.39 28.33 35.71 9.91 18.5 9.28 19.0 319.3 0.0 0.031 33.24
2020-01-22 10:55 35.91 53.31 20.56 29.2 35.91 8.68 12.24 8.93 17.2 315.8 0.0 0.034 33.24
2020-01-22 11:00 36.21 52.62 20.54 28.24 36.21 11.52 13.49 10.47 16.6 315.9 0.0 0.035 33.24
2020-01-22 11:05 36.01 52.62 20.36 28.0 36.01 11.52 16.17 11.34 18.9 308.9 0.0 0.034 33.24
2020-01-22 11:10 36.14 53.07 20.68 28.7 36.14 10.27 13.13 10.54 17.4 309.4 0.0 0.034 33.24
2020-01-22 11:15 36.39 53.1 20.92 30.18 36.39 7.96 11.88 9.53 21.4 311.6 0.0 0.046 33.24
2020-01-22 11:20 36.75 52.28 20.89 29.96 36.75 9.22 15.82 10.31 21.6 316.5 0.0 0.048 33.24
2020-01-22 11:25 36.77 51.53 20.57 27.58 36.77 15.28 15.28 10.36 14.8 312.9 0.0 0.046 33.24
2020-01-22 11:30 36.95 51.67 20.8 31.62 36.95 6.71 15.82 10.72 16.8 310.7 0.0 0.048 33.24
2020-01-22 11:35 37.06 52.25 21.16 30.72 37.06 8.48 16.17 11.45 21.1 308.4 0.0 0.058 33.22
2020-01-22 11:40 37.31 50.6 20.64 30.65 37.31 9.22 13.85 10.31 16.6 301.5 0.0 0.063 33.22
2020-01-22 11:45 37.24 49.95 20.27 29.6 37.24 11.34 14.74 10.31 16.5 310.1 0.0 0.059 33.22
2020-01-22 11:50 38.79 46.47 20.0 31.62 38.79 11.16 18.32 12.46 19.8 311.7 0.0 0.196 33.22
2020-01-22 11:55 39.4 47.87 21.26 32.53 39.4 10.8 17.07 12.46 17.1 329.4 0.0 0.208 33.21
2020-01-22 12:00 39.81 45.74 20.57 34.27 39.81 8.12 15.99 11.68 17.4 308.3 0.0 0.213 33.22
2020-01-22 12:05 40.3 45.95 21.12 34.25 40.3 9.4 16.89 11.23 18.2 314.6 0.0 0.213 33.21
2020-01-22 12:10 40.37 44.48 20.42 33.81 40.37 10.63 17.25 11.3 20.2 321.4 0.0 0.178 33.21
2020-01-22 12:15 39.13 46.32 20.24 34.34 39.13 6.53 16.35 10.98 14.4 315.9 0.0 0.088 33.24
2020-01-22 12:20 39.31 45.84 20.16 32.27 39.31 11.16 17.07 12.57 16.4 317.3 0.0 0.117 33.24
2020-01-22 12:25 38.82 46.45 20.02 30.73 38.82 13.67 16.71 12.73 18.4 307.9 0.0 0.074 33.22
2020-01-22 12:30 38.88 46.42 20.06 29.22 38.88 19.04 19.04 12.28 12.2 321.9 0.0 0.065 33.24
2020-01-22 12:35 38.62 46.62 19.93 31.27 38.62 11.52 15.82 11.23 17.4 314.9 0.0 0.082 33.22
2020-01-22 12:40 39.36 45.59 20.08 31.01 39.36 14.92 18.68 13.35 19.1 322.5 0.0 0.147 33.22
2020-01-22 12:45 39.43 47.27 21.0 32.72 39.43 10.45 15.28 12.68 11.3 330.5 0.0 0.187 33.24
2020-01-22 12:50 39.67 45.22 20.17 33.55 39.67 9.22 16.35 10.58 17.4 320.7 0.0 0.142 33.24
2020-01-22 12:55 38.82 46.11 19.85 29.83 38.82 16.53 16.53 11.41 25.3 317.9 0.0 0.075 33.24
2020-01-22 13:00 38.62 45.36 19.28 30.24 38.62 14.38 15.64 11.77 20.8 322.9 0.0 0.078 33.24
2020-01-22 13:05 38.7 45.29 19.31 30.33 38.7 14.38 19.04 11.1 17.8 325.1 0.0 0.087 33.24
2020-01-22 13:10 38.7 46.31 19.84 32.36 38.7 9.22 17.25 11.5 14.3 322.3 0.0 0.084 33.26
2020-01-22 13:15 39.54 44.4 19.62 33.08 39.54 9.91 17.25 12.3 15.7 323.0 0.0 0.167 33.26
2020-01-22 13:20 40.23 44.16 20.12 34.16 40.23 9.4 16.17 11.21 20.2 321.4 0.0 0.197 33.28
2020-01-22 13:25 40.48 42.21 19.29 32.96 40.48 13.31 20.47 11.45 22.8 312.5 0.0 0.195 33.3
2020-01-22 13:30 40.96 41.15 19.13 33.76 40.96 12.77 16.53 10.63 16.5 314.7 0.0 0.186 33.3
2020-01-22 13:35 41.14 41.56 19.53 35.45 41.14 9.04 17.43 9.35 20.4 318.4 0.0 0.177 33.31
2020-01-22 13:40 40.53 41.52 18.95 31.52 40.53 18.5 19.22 13.47 19.6 323.2 0.0 0.168 33.33
2020-01-22 13:45 40.46 41.32 18.77 33.24 40.46 12.42 17.61 11.74 16.7 322.8 0.0 0.163 33.4
2020-01-22 13:50 40.71 42.04 19.41 34.53 40.71 9.91 13.13 9.04 20.6 324.1 0.0 0.159 33.44
2020-01-22 13:55 40.77 41.66 19.24 34.45 40.77 10.27 15.99 10.07 21.4 302.9 0.0 0.156 33.49
2020-01-22 14:00 40.46 40.74 18.44 32.36 40.46 15.1 16.35 11.65 25.2 307.9 0.0 0.153 33.57
2020-01-22 14:05 40.59 39.03 17.56 34.52 40.59 9.57 16.17 11.05 20.0 320.5 0.0 0.15 33.64
2020-01-22 14:10 40.95 40.33 18.65 35.82 40.95 7.78 14.74 9.37 20.8 321.7 0.0 0.147 33.75
2020-01-22 14:15 41.13 39.71 18.45 36.14 41.13 7.61 15.28 8.88 19.4 321.4 0.0 0.144 33.85
2020-01-22 14:20 41.02 42.27 19.81 35.3 41.02 9.04 14.03 8.99 22.7 318.2 0.0 0.141 33.98
2020-01-22 14:25 41.45 38.24 17.86 35.09 41.45 10.8 10.8 7.72 31.7 329.9 0.0 0.137 34.09
2020-01-22 14:30 41.45 36.91 17.04 35.91 41.45 8.86 15.28 8.57 25.0 343.6 0.0 0.134 34.23
2020-01-22 14:35 41.2 41.21 19.38 38.82 41.2 3.85 13.31 8.05 18.6 332.9 0.0 0.13 34.36
2020-01-22 14:40 41.25 37.32 17.12 33.71 41.25 14.03 16.71 9.15 17.5 311.6 0.0 0.127 34.54
2020-01-22 14:45 40.95 40.33 18.65 36.11 40.95 7.25 15.99 9.55 23.5 324.3 0.0 0.123 34.68
2020-01-22 14:50 41.25 39.68 18.54 37.34 41.25 5.82 12.24 8.19 31.6 330.0 0.0 0.12 34.81
2020-01-22 14:55 41.81 38.45 18.31 34.89 41.81 12.59 12.59 6.8 38.2 332.4 0.0 0.116 34.95
2020-01-22 15:00 41.38 38.96 18.23 35.44 41.38 9.73 14.56 8.08 21.5 311.8 0.0 0.113 35.1
2020-01-22 15:05 41.13 40.43 18.87 36.33 41.13 7.25 13.31 8.48 19.6 304.9 0.0 0.109 35.24
2020-01-22 15:10 40.95 39.13 17.94 34.53 40.95 10.63 13.85 10.65 24.4 305.3 0.0 0.105 35.37
2020-01-22 15:15 40.95 40.12 18.53 35.47 40.95 8.48 13.85 9.19 16.4 309.8 0.0 0.102 35.51
2020-01-22 15:20 41.0 38.45 17.59 34.39 41.0 11.16 12.24 8.75 26.3 317.1 0.0 0.098 35.65
2020-01-22 15:25 41.07 39.68 18.38 35.72 41.07 8.3 12.59 8.61 26.7 321.5 0.0 0.094 35.74
2020-01-22 15:30 41.13 38.04 17.45 37.07 41.13 6.0 10.63 6.62 23.3 327.4 0.0 0.089 35.85
2020-01-22 15:35 41.45 38.72 18.15 35.52 41.45 9.73 10.63 5.3 29.8 313.9 0.0 0.086 35.96

Data is courtesy of the NM Climate Center. DO NOT USE IN LEGAL PROCEEDINGS.